Daisinmaru No.11 — JK5352 — position and weather

sailwx.info

Track history (hours):
 
Tides and Currents Weather Stations Pressure Air Temp Water Temp Dewpoint Dewpoint Depression Visibility Wind Speed Wind Dir Waves Ship Positions

Daisinmaru No.11

Last reported at 2015-Apr-18 01:23 UTC. Time now 2015-Apr-18 15:11 UTC.
Position N 35°28' E 139°60'.

Length 52 m; draft 5.2 m.

Type: Cargo ship. MMSI: 431000667.

Date/timePositionNaut miles runAvg speedWind from/ knotsBaromVisibWave heightAir tempDewpointWater temp
2015-Apr-18 01:23N 35°28' E 139°60'5 5.9
2015-Apr-18 00:31N 35°32' E 140°02'3 0.2
2015-Apr-17 08:33N 35°32' E 140°06'4 3.9
2015-Apr-17 07:33N 35°33' E 140°01'9 9.4
2015-Apr-17 06:34N 35°30' E 139°50'6 6.0
2015-Apr-17 05:33N 35°29' E 139°43'0 0.0
2015-Apr-17 04:33N 35°29' E 139°43'0 0.0
2015-Apr-17 03:33N 35°29' E 139°43'5 5.2
2015-Apr-17 02:33N 35°30' E 139°49'9 8.9
2015-Apr-17 01:33N 35°28' E 139°60'  
2015-Apr-14 08:10N 35°27' E 139°60'0 0.0
2015-Apr-14 07:33N 35°27' E 139°60'7 6.8
2015-Apr-14 06:33N 35°30' E 139°52'7 7.6
2015-Apr-14 05:33N 35°29' E 139°43'0 0.0
2015-Apr-14 04:33N 35°29' E 139°43'0 0.0
2015-Apr-14 03:33N 35°29' E 139°43'4 4.4
2015-Apr-14 02:33N 35°30' E 139°48'10 9.8
2015-Apr-14 01:33N 35°28' E 139°60'0 0.3
2015-Apr-14 00:33N 35°27' E 139°60'0 0.0
2015-Apr-13 08:29N 35°27' E 139°60'2 2.2
2015-Apr-13 07:33N 35°29' E 139°58'9 8.9
2015-Apr-13 06:33N 35°30' E 139°47'4 3.8
2015-Apr-13 05:33N 35°29' E 139°43'0 0.0
2015-Apr-13 04:33N 35°29' E 139°43'0 0.0
2015-Apr-13 03:34N 35°29' E 139°43'4 3.7
2015-Apr-13 02:33N 35°30' E 139°47'10 9.6
2015-Apr-13 01:34N 35°29' E 139°59'2 1.5
2015-Apr-13 00:33N 35°27' E 139°60'0 0.0
2015-Apr-11 06:17N 35°27' E 139°60'4 5.5
2015-Apr-11 05:33N 35°31' E 140°02'4 3.8
2015-Apr-11 04:33N 35°32' E 140°06'0 0.0
2015-Apr-11 03:33N 35°32' E 140°06'6 6.4
2015-Apr-11 02:33N 35°32' E 139°58'9 9.0
2015-Apr-11 01:33N 35°30' E 139°47'4 3.7
2015-Apr-11 00:34N 35°29' E 139°43'0 0.0
2015-Apr-10 23:33N 35°29' E 139°43'0 0.3
2015-Apr-10 22:33N 35°29' E 139°43'10 9.7
2015-Apr-10 21:33N 35°29' E 139°55'  
Track history (hours):
 
Tides and Currents Weather Stations Pressure Air Temp Water Temp Dewpoint Dewpoint Depression Visibility Wind Speed Wind Dir Waves Ship Positions

Daisinmaru No.11

Last reported at 2015-Apr-18 01:23 UTC. Time now 2015-Apr-18 15:11 UTC.
Position N 35°28' E 139°60'.

Length 52 m; draft 5.2 m.

Type: Cargo ship. MMSI: 431000667.

Date/timePositionNaut miles runAvg speedWind from/ knotsBaromVisibWave heightAir tempDewpointWater temp
2015-Apr-18 01:23N 35°28' E 139°60'5 5.9
2015-Apr-18 00:31N 35°32' E 140°02'3 0.2
2015-Apr-17 08:33N 35°32' E 140°06'4 3.9
2015-Apr-17 07:33N 35°33' E 140°01'9 9.4
2015-Apr-17 06:34N 35°30' E 139°50'6 6.0
2015-Apr-17 05:33N 35°29' E 139°43'0 0.0
2015-Apr-17 04:33N 35°29' E 139°43'0 0.0
2015-Apr-17 03:33N 35°29' E 139°43'5 5.2
2015-Apr-17 02:33N 35°30' E 139°49'9 8.9
2015-Apr-17 01:33N 35°28' E 139°60'  
2015-Apr-14 08:10N 35°27' E 139°60'0 0.0
2015-Apr-14 07:33N 35°27' E 139°60'7 6.8
2015-Apr-14 06:33N 35°30' E 139°52'7 7.6
2015-Apr-14 05:33N 35°29' E 139°43'0 0.0
2015-Apr-14 04:33N 35°29' E 139°43'0 0.0
2015-Apr-14 03:33N 35°29' E 139°43'4 4.4
2015-Apr-14 02:33N 35°30' E 139°48'10 9.8
2015-Apr-14 01:33N 35°28' E 139°60'0 0.3
2015-Apr-14 00:33N 35°27' E 139°60'0 0.0
2015-Apr-13 08:29N 35°27' E 139°60'2 2.2
2015-Apr-13 07:33N 35°29' E 139°58'9 8.9
2015-Apr-13 06:33N 35°30' E 139°47'4 3.8
2015-Apr-13 05:33N 35°29' E 139°43'0 0.0
2015-Apr-13 04:33N 35°29' E 139°43'0 0.0
2015-Apr-13 03:34N 35°29' E 139°43'4 3.7
2015-Apr-13 02:33N 35°30' E 139°47'10 9.6
2015-Apr-13 01:34N 35°29' E 139°59'2 1.5
2015-Apr-13 00:33N 35°27' E 139°60'0 0.0
2015-Apr-11 06:17N 35°27' E 139°60'4 5.5
2015-Apr-11 05:33N 35°31' E 140°02'4 3.8
2015-Apr-11 04:33N 35°32' E 140°06'0 0.0
2015-Apr-11 03:33N 35°32' E 140°06'6 6.4
2015-Apr-11 02:33N 35°32' E 139°58'9 9.0
2015-Apr-11 01:33N 35°30' E 139°47'4 3.7
2015-Apr-11 00:34N 35°29' E 139°43'0 0.0
2015-Apr-10 23:33N 35°29' E 139°43'0 0.3
2015-Apr-10 22:33N 35°29' E 139°43'10 9.7
2015-Apr-10 21:33N 35°29' E 139°55'  

Dump ship's entire track history